Main page
METAR-TAF:

METAR-TAF

Airports :

Comandante Gustavo Kraemer Airport

Bagé, Rio Grande do Sul, Brazil

latitude: 31-21S, longitude: 054-07W, elevation: 180 m

Current weather observation

The report was made 51 minutes ago, at 16:00 UTC
Wind 14 kt from the West
Temperature 30°C
Humidity 46%
Pressure 1009 hPa
Visibility 10 km or more
no clouds below 1500 m and no cumulonimbus

METAR: SBBG 251600Z AUTO 28014KT CAVOK 30/17 Q1009

Time: 13:51 (16:51 UTC)

Forecast

The report was made 25 hours and 51 minutes ago, at 15:00 UTC
Forecast valid from 24 at 18 UTC to 25 at 18 UTC
Wind 7 kt from the East
Visibility 10 km or more
Few clouds at a height of 3000 ft
Becoming
from 24 at 22 UTC to 24 at 24 UTC
Wind 12 kt from the North/Northwest
Visibility 10 km or more
no clouds below 1500 m and no cumulonimbus

TAF: SBBG 241500Z 2418/2518 10007KT 9999 FEW030 TN20/2508Z TX33/2518Z BECMG 2422/2424 34012KT CAVOK RMK PDJ

Weather observations and forecasts of more than 4000 airports (METAR and TAF reports).

The available stations are represented by yellow and red dots on the map.

Hover mouse over dot to see the name of the station.

Then click to see weather observations and forecasts.

To change the map : click on the green buttons with a black cross to zoom in, on the green button with a dash to zoom out, or on the green arrows for adjacent maps.


METAR-TAF: